createdAt,value
2023-05-22T00:00:25.017Z,18.30
2023-05-22T00:02:52.494Z,20.27
2023-05-22T00:05:20.544Z,21.55
2023-05-22T00:07:47.890Z,23.17
2023-05-22T00:10:15.078Z,20.63
2023-05-22T00:12:42.154Z,23.15
2023-05-22T00:15:09.524Z,23.95
2023-05-22T00:17:36.740Z,22.40
2023-05-22T00:20:06.824Z,21.55
2023-05-22T00:22:35.557Z,24.27
2023-05-22T00:25:05.925Z,21.67
2023-05-22T00:27:33.349Z,21.48
2023-05-22T00:30:01.081Z,22.95
2023-05-22T00:32:28.505Z,23.80
2023-05-22T00:34:55.729Z,21.70
2023-05-22T00:37:23.208Z,24.92
2023-05-22T00:39:50.456Z,23.15
2023-05-22T00:42:17.649Z,21.83
2023-05-22T00:44:44.771Z,22.05
2023-05-22T00:47:12.001Z,21.33
2023-05-22T00:49:39.129Z,22.27
2023-05-22T00:52:06.399Z,23.52
2023-05-22T00:54:33.523Z,25.38
2023-05-22T00:57:01.524Z,24.95
2023-05-22T00:59:28.908Z,24.45
2023-05-22T01:01:57.187Z,24.02
2023-05-22T01:04:24.526Z,23.95
2023-05-22T01:06:51.703Z,24.15
2023-05-22T01:09:18.822Z,23.85
2023-05-22T01:11:54.764Z,28.80
2023-05-22T01:14:28.134Z,27.02
2023-05-22T01:17:10.704Z,23.30
2023-05-22T01:19:38.044Z,23.10
2023-05-22T01:22:08.726Z,24.92
2023-05-22T01:24:45.091Z,24.42
2023-05-22T01:27:12.162Z,23.50
2023-05-22T01:29:58.244Z,25.33
2023-05-22T01:32:26.189Z,24.90
2023-05-22T01:34:54.849Z,21.45
2023-05-22T01:37:22.548Z,24.20
2023-05-22T01:39:49.684Z,23.58
2023-05-22T01:42:16.849Z,23.52
2023-05-22T01:44:43.976Z,22.77
2023-05-22T01:47:11.153Z,25.20
2023-05-22T01:49:38.228Z,24.63
2023-05-22T01:52:18.552Z,24.48
2023-05-22T01:54:47.291Z,20.23
2023-05-22T01:57:17.276Z,24.35
2023-05-22T01:59:47.514Z,22.88
2023-05-22T02:02:17.662Z,20.90
2023-05-22T02:04:46.543Z,21.90
2023-05-22T02:07:14.213Z,22.48
2023-05-22T02:09:41.512Z,21.63
2023-05-22T02:12:08.833Z,20.77
2023-05-22T02:14:36.776Z,24.95
2023-05-22T02:17:04.082Z,25.63
2023-05-22T02:19:31.305Z,21.05
2023-05-22T02:21:58.528Z,24.75
2023-05-22T02:24:25.753Z,23.50
2023-05-22T02:26:52.860Z,23.35
2023-05-22T02:29:19.958Z,24.98
2023-05-22T02:31:47.069Z,24.88
2023-05-22T02:34:14.212Z,26.20
2023-05-22T02:36:41.374Z,23.42
2023-05-22T02:39:08.967Z,24.70
2023-05-22T02:41:36.072Z,23.52
2023-05-22T02:44:03.156Z,24.77
2023-05-22T02:46:30.457Z,23.63
2023-05-22T02:48:57.826Z,25.45
2023-05-22T02:51:24.918Z,23.13
2023-05-22T02:53:52.373Z,22.80
2023-05-22T02:56:20.980Z,23.60
2023-05-22T02:58:48.239Z,21.17
2023-05-22T03:01:15.581Z,22.63
2023-05-22T03:03:43.723Z,23.48
2023-05-22T03:06:11.101Z,25.13
2023-05-22T03:08:41.634Z,23.60
2023-05-22T03:11:09.100Z,24.98
2023-05-22T03:13:36.607Z,21.80
2023-05-22T03:16:03.877Z,26.70
2023-05-22T03:18:31.379Z,21.50
2023-05-22T03:20:58.431Z,28.48
2023-05-22T03:23:25.643Z,28.00
2023-05-22T03:25:52.765Z,23.92
2023-05-22T03:28:19.923Z,26.85
2023-05-22T03:30:47.549Z,25.77
2023-05-22T03:33:14.725Z,25.67
2023-05-22T03:35:43.757Z,31.02
2023-05-22T03:38:11.184Z,32.38
2023-05-22T03:40:38.537Z,27.83
2023-05-22T03:43:05.846Z,29.05
2023-05-22T03:45:32.948Z,26.98
2023-05-22T03:48:00.254Z,24.40
2023-05-22T03:50:27.514Z,29.05
2023-05-22T03:52:54.692Z,28.25
2023-05-22T03:55:21.848Z,29.38
2023-05-22T03:57:48.918Z,28.38
2023-05-22T04:00:19.458Z,30.83
2023-05-22T04:05:13.736Z,24.73
2023-05-22T04:07:40.881Z,24.80
2023-05-22T04:10:08.278Z,28.88
2023-05-22T04:12:35.477Z,27.80
2023-05-22T04:15:02.730Z,27.30
2023-05-22T04:17:33.532Z,25.15
2023-05-22T04:20:00.908Z,26.58
2023-05-22T04:22:30.815Z,23.83
2023-05-22T04:24:58.173Z,27.25
2023-05-22T04:27:26.318Z,25.80
2023-05-22T04:29:53.723Z,27.67
2023-05-22T04:32:23.817Z,24.45
2023-05-22T04:34:51.064Z,26.80
2023-05-22T04:37:21.220Z,25.65
2023-05-22T04:39:48.365Z,31.58
2023-05-22T04:42:16.013Z,25.27
2023-05-22T04:44:43.576Z,25.77
2023-05-22T04:47:14.593Z,23.73
2023-05-22T04:49:43.524Z,27.17
2023-05-22T04:52:11.610Z,27.05
2023-05-22T04:54:38.966Z,28.52
2023-05-22T04:57:06.309Z,29.77
2023-05-22T04:59:37.932Z,29.00
2023-05-22T05:02:05.777Z,27.13
2023-05-22T05:04:33.050Z,30.63
2023-05-22T05:07:00.242Z,29.33
2023-05-22T05:09:27.339Z,32.63
2023-05-22T05:11:55.208Z,28.30
2023-05-22T05:14:22.393Z,29.17
2023-05-22T05:16:51.674Z,28.25
2023-05-22T05:19:21.465Z,29.40
2023-05-22T05:21:49.367Z,27.50
2023-05-22T05:24:19.646Z,24.42
2023-05-22T05:26:46.795Z,32.38
2023-05-22T05:29:13.915Z,25.40
2023-05-22T05:31:41.241Z,26.45
2023-05-22T05:34:08.394Z,27.55
2023-05-22T05:36:35.700Z,24.58
2023-05-22T05:39:02.807Z,25.48
2023-05-22T05:41:29.873Z,26.10
2023-05-22T05:43:59.914Z,24.40
2023-05-22T05:46:27.123Z,22.17
2023-05-22T05:48:54.285Z,25.02
2023-05-22T05:51:22.156Z,22.92
2023-05-22T05:53:49.344Z,28.25
2023-05-22T05:56:16.575Z,20.42
2023-05-22T05:58:43.744Z,24.90
2023-05-22T06:01:11.794Z,23.55
2023-05-22T06:03:39.255Z,20.55
2023-05-22T06:06:07.260Z,21.67
2023-05-22T06:08:34.600Z,22.08
2023-05-22T06:11:02.259Z,21.65
2023-05-22T06:13:29.453Z,21.92
2023-05-22T06:15:58.701Z,24.58
2023-05-22T06:18:27.690Z,18.38
2023-05-22T06:20:54.893Z,20.42
2023-05-22T06:23:22.120Z,15.80
2023-05-22T06:25:49.248Z,17.73
2023-05-22T06:28:16.408Z,19.40
2023-05-22T06:30:43.810Z,15.93
2023-05-22T06:33:11.036Z,15.48
2023-05-22T06:35:38.120Z,16.08
2023-05-22T06:38:05.310Z,16.55
2023-05-22T06:40:32.462Z,16.77
2023-05-22T06:42:59.674Z,16.67
2023-05-22T06:45:26.778Z,15.65
2023-05-22T06:47:54.240Z,14.07
2023-05-22T06:50:22.301Z,18.55
2023-05-22T06:52:49.448Z,16.45
2023-05-22T06:55:16.595Z,17.00
2023-05-22T06:57:43.706Z,17.00
2023-05-22T07:00:12.773Z,14.95
2023-05-22T07:02:40.213Z,13.50
2023-05-22T07:05:07.584Z,15.23
2023-05-22T07:07:34.765Z,14.77
2023-05-22T07:10:01.902Z,15.88
2023-05-22T07:12:29.596Z,14.40
2023-05-22T07:14:57.854Z,16.23
2023-05-22T07:17:25.081Z,12.73
2023-05-22T07:19:52.266Z,15.07
2023-05-22T07:22:19.445Z,13.68
2023-05-22T07:24:47.467Z,12.20
2023-05-22T07:27:14.880Z,13.77
2023-05-22T07:29:41.998Z,10.98
2023-05-22T07:32:09.233Z,14.13
2023-05-22T07:34:36.396Z,10.23
2023-05-22T07:37:12.592Z,12.98
2023-05-22T07:39:39.687Z,9.10
2023-05-22T07:42:07.097Z,11.93
2023-05-22T07:44:34.416Z,11.25
2023-05-22T07:47:01.690Z,10.15
2023-05-22T07:49:28.914Z,14.10
2023-05-22T07:51:56.096Z,12.07
2023-05-22T07:54:23.190Z,9.48
2023-05-22T07:56:50.397Z,8.93
2023-05-22T07:59:19.639Z,10.52
2023-05-22T08:01:46.820Z,10.93
2023-05-22T08:04:14.180Z,11.10
2023-05-22T08:06:43.821Z,10.60
2023-05-22T08:09:10.976Z,10.13
2023-05-22T08:11:40.147Z,13.50
2023-05-22T08:14:07.734Z,10.73
2023-05-22T08:16:35.091Z,8.65
2023-05-22T08:19:02.448Z,8.82
2023-05-22T08:21:29.789Z,10.43
2023-05-22T08:23:57.023Z,9.77
2023-05-22T08:26:24.200Z,13.65
2023-05-22T08:28:52.285Z,9.65
2023-05-22T08:31:19.501Z,7.57
2023-05-22T08:33:46.872Z,10.65
2023-05-22T08:36:14.023Z,7.43
2023-05-22T08:38:41.518Z,9.95
2023-05-22T08:41:09.232Z,8.85
2023-05-22T08:43:36.339Z,16.00
2023-05-22T08:46:09.012Z,7.80
2023-05-22T08:48:36.140Z,8.88
2023-05-22T08:51:03.874Z,11.15
2023-05-22T08:53:32.278Z,9.27
2023-05-22T08:55:59.550Z,11.60
2023-05-22T08:58:26.808Z,10.07
2023-05-22T09:00:53.972Z,8.85
2023-05-22T09:03:21.653Z,9.60
2023-05-22T09:05:49.550Z,9.32
2023-05-22T09:08:20.900Z,10.38
2023-05-22T09:10:48.649Z,15.15
2023-05-22T09:13:26.414Z,8.45
2023-05-22T09:15:53.556Z,8.07
2023-05-22T09:18:22.069Z,13.35
2023-05-22T09:20:49.212Z,8.60
2023-05-22T09:23:19.845Z,9.13
2023-05-22T09:25:47.731Z,12.73
2023-05-22T09:28:14.874Z,11.55
2023-05-22T09:30:42.625Z,11.80
2023-05-22T09:33:09.986Z,18.42
2023-05-22T09:35:39.490Z,12.48
2023-05-22T09:38:06.722Z,10.85
2023-05-22T09:40:35.125Z,9.75
2023-05-22T09:43:02.853Z,8.77
2023-05-22T09:45:30.058Z,14.13
2023-05-22T09:47:57.872Z,8.50
2023-05-22T09:50:25.001Z,13.50
2023-05-22T09:52:52.251Z,10.38
2023-05-22T09:55:19.457Z,9.93
2023-05-22T09:57:48.350Z,9.35
2023-05-22T10:00:19.346Z,14.70
2023-05-22T10:02:47.297Z,13.77
2023-05-22T10:05:23.800Z,11.23
2023-05-22T10:07:52.145Z,9.68
2023-05-22T10:10:21.471Z,12.43
2023-05-22T10:12:50.987Z,10.63
2023-05-22T10:15:18.785Z,10.80
2023-05-22T10:17:46.537Z,11.77
2023-05-22T10:20:14.146Z,14.38
2023-05-22T10:22:41.251Z,14.88
2023-05-22T10:25:10.619Z,7.40
2023-05-22T10:27:38.047Z,12.02
2023-05-22T10:30:25.781Z,8.80
2023-05-22T10:32:53.726Z,7.85
2023-05-22T10:35:21.876Z,9.63
2023-05-22T10:37:52.124Z,10.23
2023-05-22T10:40:29.326Z,7.72
2023-05-22T10:43:04.018Z,8.95
2023-05-22T10:45:31.894Z,10.05
2023-05-22T10:48:03.379Z,9.95
2023-05-22T10:50:30.738Z,8.57
2023-05-22T10:53:16.778Z,9.40
2023-05-22T10:55:53.497Z,7.53
2023-05-22T10:58:27.821Z,8.75
2023-05-22T11:01:13.658Z,11.55
2023-05-22T11:03:59.226Z,7.13
2023-05-22T11:06:33.468Z,7.88
2023-05-22T11:09:00.652Z,11.07
2023-05-22T11:11:27.963Z,9.18
2023-05-22T11:14:05.413Z,7.65
2023-05-22T11:16:35.599Z,7.35
2023-05-22T11:21:46.421Z,7.25
2023-05-22T11:24:13.949Z,7.25
2023-05-22T11:26:44.355Z,7.28
2023-05-22T11:29:11.604Z,6.93
2023-05-22T11:31:38.909Z,8.43
2023-05-22T11:34:06.038Z,7.88
2023-05-22T11:36:33.156Z,6.78
2023-05-22T11:39:00.498Z,9.93
2023-05-22T11:41:33.197Z,7.60
2023-05-22T11:44:01.470Z,10.07
2023-05-22T11:46:30.184Z,7.28
2023-05-22T11:48:57.434Z,8.48
2023-05-22T11:51:24.666Z,6.60
2023-05-22T11:53:51.787Z,6.63
2023-05-22T11:56:21.537Z,9.93
2023-05-22T11:58:51.917Z,9.65
2023-05-22T12:01:19.145Z,8.68
2023-05-22T12:03:46.508Z,7.80
2023-05-22T12:06:15.824Z,9.13
2023-05-22T12:08:44.739Z,7.70
2023-05-22T12:11:14.870Z,7.93
2023-05-22T12:13:41.977Z,6.03
2023-05-22T12:16:18.771Z,7.63
2023-05-22T12:18:46.260Z,7.47
2023-05-22T12:21:13.491Z,6.85
2023-05-22T12:23:48.243Z,7.80
2023-05-22T12:26:15.380Z,8.75
2023-05-22T12:28:42.475Z,4.85
2023-05-22T12:31:09.609Z,6.20
2023-05-22T12:33:36.710Z,5.78
2023-05-22T12:36:07.738Z,8.07
2023-05-22T12:38:35.639Z,8.25
2023-05-22T12:41:02.863Z,11.50
2023-05-22T12:43:29.970Z,9.10
2023-05-22T12:45:57.232Z,6.68
2023-05-22T12:48:24.462Z,6.60
2023-05-22T12:50:51.603Z,10.32
2023-05-22T12:53:19.583Z,10.13
2023-05-22T12:55:46.873Z,6.75
2023-05-22T12:58:13.993Z,7.68
2023-05-22T13:00:41.340Z,7.25
2023-05-22T13:03:08.650Z,7.47
2023-05-22T13:05:35.912Z,8.43
2023-05-22T13:08:03.159Z,7.47
2023-05-22T13:10:30.632Z,7.90
2023-05-22T13:12:57.786Z,5.97
2023-05-22T13:15:24.920Z,10.98
2023-05-22T13:17:52.022Z,23.38
2023-05-22T13:20:19.186Z,20.35
2023-05-22T13:22:46.392Z,7.03
2023-05-22T13:25:13.525Z,9.40
2023-05-22T13:27:40.738Z,8.63
2023-05-22T13:30:08.030Z,7.32
2023-05-22T13:32:35.288Z,7.20
2023-05-22T13:35:02.542Z,9.27
2023-05-22T13:37:29.673Z,9.70
2023-05-22T13:39:56.757Z,9.13
2023-05-22T13:42:23.850Z,8.23
2023-05-22T13:44:50.999Z,8.00
2023-05-22T13:47:18.289Z,8.73
2023-05-22T13:49:45.934Z,10.57
2023-05-22T13:52:13.061Z,6.13
2023-05-22T13:54:40.266Z,7.32
2023-05-22T13:57:07.525Z,8.27
2023-05-22T13:59:34.813Z,61.63
2023-05-22T14:02:02.005Z,18.77
2023-05-22T14:04:29.227Z,27.63
2023-05-22T14:06:56.355Z,26.27
2023-05-22T14:09:23.595Z,18.48
2023-05-22T14:11:50.752Z,9.80
2023-05-22T14:14:23.650Z,7.53
2023-05-22T14:16:51.580Z,9.07
2023-05-22T14:19:19.059Z,8.75
2023-05-22T14:21:47.835Z,13.90
2023-05-22T14:24:14.923Z,8.57
2023-05-22T14:26:42.233Z,8.70
2023-05-22T14:29:09.669Z,12.48
2023-05-22T14:31:48.424Z,22.35
2023-05-22T14:34:17.883Z,13.35
2023-05-22T14:36:45.064Z,18.83
2023-05-22T14:39:12.213Z,16.05
2023-05-22T14:41:39.411Z,14.48
2023-05-22T14:44:06.730Z,19.30
2023-05-22T14:46:33.851Z,9.32
2023-05-22T14:49:01.034Z,10.93
2023-05-22T14:51:28.115Z,8.50
2023-05-22T14:53:55.483Z,6.30
2023-05-22T14:56:23.030Z,10.70
2023-05-22T14:58:50.211Z,9.55
2023-05-22T15:01:17.366Z,14.55
2023-05-22T15:03:44.566Z,19.48
2023-05-22T15:06:11.752Z,10.38
2023-05-22T15:08:38.866Z,10.95
2023-05-22T15:11:06.019Z,8.55
2023-05-22T15:13:33.174Z,8.07
2023-05-22T15:16:00.283Z,14.65
2023-05-22T15:18:27.542Z,14.55
2023-05-22T15:20:54.833Z,20.80
2023-05-22T15:23:25.234Z,16.27
2023-05-22T15:25:55.348Z,24.17
2023-05-22T15:28:22.493Z,15.48
2023-05-22T15:30:49.624Z,9.50
2023-05-22T15:33:17.186Z,8.25
2023-05-22T15:35:46.656Z,13.95
2023-05-22T15:38:15.527Z,21.67
2023-05-22T15:40:42.809Z,12.73
2023-05-22T15:43:10.064Z,13.48
2023-05-22T15:45:40.141Z,20.52
2023-05-22T15:48:07.652Z,13.77
2023-05-22T15:50:34.879Z,27.63
2023-05-22T15:53:02.067Z,29.33
2023-05-22T15:55:29.258Z,22.85
2023-05-22T15:57:56.347Z,18.35
2023-05-22T16:00:23.566Z,14.95
2023-05-22T16:02:51.217Z,7.75
2023-05-22T16:05:18.501Z,17.42
2023-05-22T16:07:45.744Z,9.15
2023-05-22T16:10:12.877Z,12.18
2023-05-22T16:12:41.121Z,13.65
2023-05-22T16:15:08.686Z,8.38
2023-05-22T16:17:36.136Z,11.90
2023-05-22T16:20:04.949Z,11.52
2023-05-22T16:22:47.318Z,12.15
2023-05-22T16:25:16.672Z,8.57
2023-05-22T16:27:43.782Z,8.40
2023-05-22T16:30:12.094Z,13.35
2023-05-22T16:32:39.575Z,8.68
2023-05-22T16:35:06.801Z,7.25
2023-05-22T16:37:34.183Z,10.32
2023-05-22T16:40:01.409Z,8.93
2023-05-22T16:42:28.502Z,9.80
2023-05-22T16:44:55.776Z,11.48
2023-05-22T16:47:22.946Z,9.88
2023-05-22T16:49:50.496Z,11.88
2023-05-22T16:52:22.200Z,9.35
2023-05-22T16:54:49.784Z,8.07
2023-05-22T16:57:17.083Z,8.88
2023-05-22T16:59:44.530Z,11.43
2023-05-22T17:02:11.767Z,11.63
2023-05-22T17:04:40.108Z,15.93
2023-05-22T17:07:07.240Z,10.25
2023-05-22T17:09:34.555Z,15.25
2023-05-22T17:12:01.795Z,14.35
2023-05-22T17:14:28.878Z,10.45
2023-05-22T17:16:56.287Z,14.68
2023-05-22T17:19:23.719Z,11.75
2023-05-22T17:21:50.912Z,15.45
2023-05-22T17:24:18.042Z,15.68
2023-05-22T17:26:45.157Z,15.27
2023-05-22T17:29:12.303Z,21.55
2023-05-22T17:31:39.796Z,15.57
2023-05-22T17:34:07.093Z,17.33
2023-05-22T17:36:34.416Z,18.13
2023-05-22T17:39:01.693Z,17.73
2023-05-22T17:41:28.845Z,17.10
2023-05-22T17:43:57.151Z,16.90
2023-05-22T17:46:24.367Z,16.20
2023-05-22T17:48:51.617Z,17.48
2023-05-22T17:51:18.724Z,16.17
2023-05-22T17:53:45.934Z,17.15
2023-05-22T17:56:13.156Z,13.65
2023-05-22T17:58:40.650Z,15.65
2023-05-22T18:01:07.802Z,15.93
2023-05-22T18:03:35.168Z,16.48
2023-05-22T18:06:02.339Z,15.13
2023-05-22T18:08:29.520Z,16.45
2023-05-22T18:10:58.110Z,25.35
2023-05-22T18:13:25.193Z,17.98
2023-05-22T18:15:52.436Z,14.82
2023-05-22T18:18:19.654Z,16.95
2023-05-22T18:20:46.806Z,16.20
2023-05-22T18:23:13.906Z,20.00
2023-05-22T18:25:41.540Z,16.17
2023-05-22T18:28:08.763Z,17.05
2023-05-22T18:30:36.189Z,20.85
2023-05-22T18:33:03.907Z,19.35
2023-05-22T18:35:32.808Z,18.03
2023-05-22T18:38:00.222Z,15.13
2023-05-22T18:40:27.433Z,14.90
2023-05-22T18:42:54.560Z,13.93
2023-05-22T18:45:21.686Z,12.43
2023-05-22T18:47:48.833Z,12.55
2023-05-22T18:50:16.052Z,13.25
2023-05-22T18:52:43.265Z,15.50
2023-05-22T18:55:11.222Z,16.73
2023-05-22T18:57:38.368Z,15.15
2023-05-22T19:00:06.944Z,15.95
2023-05-22T19:02:34.245Z,16.33
2023-05-22T19:05:01.518Z,24.83
2023-05-22T19:07:28.891Z,20.20
2023-05-22T19:09:55.984Z,19.10
2023-05-22T19:12:24.659Z,18.30
2023-05-22T19:14:52.524Z,21.63
2023-05-22T19:17:19.593Z,20.40
2023-05-22T19:19:46.827Z,28.92
2023-05-22T19:22:17.709Z,22.90
2023-05-22T19:24:45.198Z,24.02
2023-05-22T19:27:12.434Z,22.75
2023-05-22T19:29:39.705Z,21.95
2023-05-22T19:32:07.003Z,21.70
2023-05-22T19:34:34.109Z,23.70
2023-05-22T19:37:01.505Z,21.83
2023-05-22T19:39:28.700Z,22.27
2023-05-22T19:41:55.903Z,24.33
2023-05-22T19:44:23.051Z,26.05
2023-05-22T19:46:50.249Z,31.58
2023-05-22T19:49:17.571Z,27.45
2023-05-22T19:51:45.832Z,26.92
2023-05-22T19:54:12.937Z,26.83
2023-05-22T19:56:40.476Z,28.80
2023-05-22T19:59:07.569Z,28.90
2023-05-22T20:01:34.700Z,26.15
2023-05-22T20:04:01.954Z,30.40
2023-05-22T20:06:31.527Z,30.67
2023-05-22T20:08:58.749Z,29.92
2023-05-22T20:11:26.389Z,29.05
2023-05-22T20:13:54.498Z,35.10
2023-05-22T20:16:21.758Z,33.90
2023-05-22T20:18:49.077Z,37.53
2023-05-22T20:21:16.557Z,37.00
2023-05-22T20:23:43.917Z,44.83
2023-05-22T20:26:11.290Z,41.63
2023-05-22T20:28:38.525Z,44.20
2023-05-22T20:31:06.057Z,44.40
2023-05-22T20:33:33.231Z,44.60
2023-05-22T20:36:01.480Z,46.50
2023-05-22T20:38:29.259Z,52.42
2023-05-22T20:40:58.435Z,50.58
2023-05-22T20:43:26.191Z,53.75
2023-05-22T20:45:54.156Z,52.30
2023-05-22T20:48:21.280Z,57.55
2023-05-22T20:50:50.402Z,57.95
2023-05-22T20:53:18.216Z,63.72
2023-05-22T20:55:45.372Z,72.57
2023-05-22T20:58:12.473Z,71.30
2023-05-22T21:00:42.054Z,80.85
2023-05-22T21:03:09.465Z,85.22
2023-05-22T21:05:36.729Z,80.57
2023-05-22T21:08:03.811Z,87.50
2023-05-22T21:10:30.959Z,87.72
2023-05-22T21:12:58.093Z,83.50
2023-05-22T21:15:25.304Z,82.75
2023-05-22T21:17:52.509Z,79.28
2023-05-22T21:20:19.639Z,86.88
2023-05-22T21:22:48.091Z,79.78
2023-05-22T21:25:15.285Z,84.10
2023-05-22T21:27:42.388Z,78.75
2023-05-22T21:30:12.587Z,84.28
2023-05-22T21:32:39.713Z,74.10
2023-05-22T21:35:07.188Z,74.00
2023-05-22T21:37:34.267Z,74.85
2023-05-22T21:40:04.303Z,73.85
2023-05-22T21:42:45.160Z,66.85
2023-05-22T21:45:13.983Z,62.17
2023-05-22T21:47:41.225Z,60.10
2023-05-22T21:50:08.525Z,50.80
2023-05-22T21:52:35.656Z,54.80
2023-05-22T21:55:02.802Z,56.38
2023-05-22T21:57:29.946Z,57.38
2023-05-22T21:59:57.126Z,65.10
2023-05-22T22:02:24.596Z,56.15
2023-05-22T22:04:51.723Z,55.78
2023-05-22T22:07:18.845Z,54.10
2023-05-22T22:09:46.072Z,53.60
2023-05-22T22:12:13.160Z,48.30
2023-05-22T22:14:40.285Z,47.03
2023-05-22T22:17:07.842Z,42.13
2023-05-22T22:19:36.125Z,38.85
2023-05-22T22:22:03.486Z,34.10
2023-05-22T22:24:30.633Z,33.22
2023-05-22T22:26:58.247Z,29.63
2023-05-22T22:29:25.318Z,32.72
2023-05-22T22:31:52.975Z,33.30
2023-05-22T22:34:20.227Z,37.85
2023-05-22T22:36:47.557Z,37.50
2023-05-22T22:39:14.732Z,43.33
2023-05-22T22:41:43.023Z,45.95
2023-05-22T22:44:10.521Z,46.45
2023-05-22T22:46:37.972Z,51.83
2023-05-22T22:49:05.202Z,48.70
2023-05-22T22:51:32.314Z,55.65
2023-05-22T22:53:59.471Z,46.78
2023-05-22T22:56:29.736Z,41.72
2023-05-22T22:58:57.343Z,36.67
2023-05-22T23:01:24.841Z,33.33
2023-05-22T23:03:52.273Z,34.20
2023-05-22T23:06:19.766Z,27.02
2023-05-22T23:08:46.852Z,29.60
2023-05-22T23:11:13.989Z,25.38
2023-05-22T23:13:43.075Z,27.15
2023-05-22T23:16:10.369Z,26.23
2023-05-22T23:18:37.758Z,26.60
2023-05-22T23:21:04.828Z,23.92
2023-05-22T23:23:31.969Z,25.13
2023-05-22T23:25:59.213Z,22.27
2023-05-22T23:28:26.363Z,20.48
2023-05-22T23:30:53.498Z,25.15
2023-05-22T23:33:21.214Z,22.92
2023-05-22T23:35:48.396Z,27.58
2023-05-22T23:38:15.679Z,26.10
2023-05-22T23:40:42.732Z,28.83
2023-05-22T23:43:09.860Z,29.48
2023-05-22T23:45:37.164Z,30.50
2023-05-22T23:48:04.425Z,37.17
2023-05-22T23:50:31.544Z,35.08
2023-05-22T23:52:58.711Z,29.33
2023-05-22T23:55:26.000Z,36.13
2023-05-22T23:57:53.128Z,30.92
